Time;durP1;ratioP1;P1;durP2;ratioP2;P2;SDS_P1;SDS_P2;PMS_P1;PMS_P2;Temp;Humidity;BMP_temperature;BMP_pressure;BME280_temperature;BME280_humidity;BME280_pressure;Samples;Min_cycle;Max_cycle;Signal;HPM_P1;HPM_P2
2022/02/15 00:01:52;;;;;;;1.43;1.30;;;;;;;6.81;97.68;153109.78;5108614;28;22324;-77
2022/02/15 00:04:28;;;;;;;1.83;1.43;;;;;;;6.80;98.29;153105.91;5108316;28;20440;-77
2022/02/15 00:07:04;;;;;;;1.80;1.43;;;;;;;6.86;98.13;153121.44;5090461;28;20451;-77
2022/02/15 00:09:40;;;;;;;1.50;1.20;;;;;;;6.76;97.77;153096.88;5106642;28;20444;-77
2022/02/15 00:12:15;;;;;;;2.20;1.80;;;;;;;6.79;97.14;153104.63;5108967;28;20456;-77
2022/02/15 00:14:52;;;;;;;1.70;1.50;;;;;;;6.77;95.67;153098.19;5091577;28;20494;-76
2022/02/15 00:17:28;;;;;;;3.40;1.57;;;;;;;6.76;99.28;153096.88;5106881;28;20537;-77
2022/02/15 00:20:06;;;;;;;1.63;1.37;;;;;;;6.74;97.91;153093.03;5093456;28;20452;-76
2022/02/15 00:22:41;;;;;;;1.73;1.33;;;;;;;6.72;97.64;153087.81;5104803;28;20554;-77
2022/02/15 00:25:19;;;;;;;2.00;1.77;;;;;;;6.71;98.74;153083.97;5109892;28;20439;-76
2022/02/15 00:27:54;;;;;;;2.73;1.90;;;;;;;6.75;97.89;153094.31;5110111;28;20444;-76
2022/02/15 00:30:32;;;;;;;2.00;1.80;;;;;;;6.68;95.84;153076.22;5107798;28;20455;-77
2022/02/15 00:33:07;;;;;;;2.27;1.60;;;;;;;6.67;97.47;153074.91;5091200;28;20448;-77
2022/02/15 00:35:43;;;;;;;2.70;1.80;;;;;;;6.68;99.47;153077.50;5094433;28;20562;-77
2022/02/15 00:38:18;;;;;;;2.00;1.63;;;;;;;6.65;96.68;153069.78;5108672;28;20443;-76
2022/02/15 00:40:54;;;;;;;2.07;1.63;;;;;;;6.64;97.61;153065.91;5094110;28;20454;-76
2022/02/15 00:43:30;;;;;;;2.00;1.80;;;;;;;6.61;96.65;153059.47;5092581;28;20479;-76
2022/02/15 00:46:07;;;;;;;2.03;1.83;;;;;;;6.58;96.45;153050.41;5088979;28;20500;-76
2022/02/15 00:48:43;;;;;;;1.77;1.60;;;;;;;6.58;97.16;153051.72;5091199;28;20957;-76
2022/02/15 00:51:19;;;;;;;3.30;2.10;;;;;;;6.57;97.18;153047.81;5093208;28;20810;-77
2022/02/15 00:53:55;;;;;;;3.13;2.10;;;;;;;6.58;98.11;153051.72;5105860;28;20476;-77
2022/02/15 00:56:31;;;;;;;3.00;1.83;;;;;;;6.53;96.75;153037.50;5091095;28;20535;-77
2022/02/15 00:59:06;;;;;;;1.73;1.63;;;;;;;6.51;96.25;153032.38;5105662;28;20441;-77
2022/02/15 01:01:43;;;;;;;2.33;1.57;;;;;;;6.55;96.57;153043.97;5103981;28;20455;-77
2022/02/15 01:04:19;;;;;;;2.17;1.97;;;;;;;6.52;96.39;153034.91;5092301;28;20471;-77
2022/02/15 01:06:54;;;;;;;2.30;1.80;;;;;;;6.48;96.48;153025.91;5086475;28;20488;-77
2022/02/15 01:09:30;;;;;;;2.20;2.00;;;;;;;6.46;96.62;153020.72;5099798;28;20446;-76
2022/02/15 01:12:07;;;;;;;1.93;1.47;;;;;;;6.46;97.87;153019.47;5100812;28;21318;-77
2022/02/15 01:14:43;;;;;;;3.97;1.90;;;;;;;6.43;97.72;153013.03;5090215;28;21129;-77
2022/02/15 01:17:20;;;;;;;2.10;1.90;;;;;;;6.48;98.88;153024.63;5081629;28;20445;-77
2022/02/15 01:19:55;;;;;;;4.23;1.50;;;;;;;6.44;97.18;153014.28;5105946;28;20440;-77
2022/02/15 01:22:31;;;;;;;2.57;1.70;;;;;;;6.41;97.05;153006.53;5105035;28;20451;-77
2022/02/15 01:25:07;;;;;;;2.50;1.70;;;;;;;6.41;97.18;153007.81;5090532;28;20799;-77
2022/02/15 01:27:43;;;;;;;2.20;1.80;;;;;;;6.43;99.16;153011.72;5107180;28;20861;-77
2022/02/15 01:30:19;;;;;;;3.50;2.27;;;;;;;6.43;97.65;153011.72;5083873;28;20471;-76
2022/02/15 01:32:56;;;;;;;3.00;2.10;;;;;;;6.41;99.37;153006.53;5092984;28;20462;-77
2022/02/15 01:35:32;;;;;;;2.57;1.80;;;;;;;6.39;98.64;153001.38;5106892;28;20471;-76
2022/02/15 01:38:08;;;;;;;2.53;1.40;;;;;;;6.37;99.03;152996.22;5087508;28;20443;-77
2022/02/15 01:40:44;;;;;;;2.30;1.57;;;;;;;6.32;97.72;152983.31;5109462;28;20500;-77
2022/02/15 01:43:21;;;;;;;4.07;1.70;;;;;;;6.35;98.50;152991.06;5085496;28;20824;-77
2022/02/15 01:45:57;;;;;;;2.10;1.63;;;;;;;6.29;99.11;152975.56;5091869;28;20445;-77
2022/02/15 01:48:35;;;;;;;2.30;1.80;;;;;;;6.22;98.15;152957.53;5086558;28;20460;-77
2022/02/15 01:51:11;;;;;;;2.70;1.67;;;;;;;6.21;99.69;152954.94;5103299;28;20951;-77
2022/02/15 01:53:47;;;;;;;2.13;1.73;;;;;;;6.16;99.43;152943.31;5090520;28;20538;-77
2022/02/15 01:56:22;;;;;;;2.20;1.67;;;;;;;6.14;97.92;152939.44;5105905;28;20440;-78
2022/02/15 01:58:58;;;;;;;1.90;1.40;;;;;;;6.17;99.83;152944.63;5090181;28;20554;-77
2022/02/15 02:01:35;;;;;;;2.13;1.60;;;;;;;6.09;98.09;152925.22;5092902;28;20436;-77
2022/02/15 02:07:23;;;;;;;1.43;1.33;;;;;;;6.03;98.40;152911.09;5089000;28;20465;-77
2022/02/15 02:09:59;;;;;;;4.50;1.80;;;;;;;6.04;99.59;152913.63;5090236;28;20451;-77
2022/02/15 02:12:35;;;;;;;1.80;1.53;;;;;;;6.04;99.63;152912.34;5087265;27;20440;-77
2022/02/15 02:15:17;;;;;;;1.87;1.40;;;;;;;6.02;100.00;152908.50;5103474;28;20467;-77
2022/02/15 02:18:13;;;;;;;2.27;1.77;;;;;;;6.01;99.44;152905.88;5102821;28;20452;-77
2022/02/15 02:20:53;;;;;;;1.40;1.30;;;;;;;6.01;98.80;152905.88;5088618;28;20527;-77
2022/02/15 02:23:30;;;;;;;1.77;1.60;;;;;;;5.93;99.10;152884.00;5089921;28;20448;-77
2022/02/15 02:26:10;;;;;;;2.73;1.70;;;;;;;5.92;100.00;152882.69;5090382;28;20444;-77
2022/02/15 02:28:48;;;;;;;1.60;1.50;;;;;;;5.89;99.74;152874.97;5092034;28;20479;-77
2022/02/15 02:31:24;;;;;;;2.00;1.70;;;;;;;5.84;99.24;152862.00;5090285;28;20445;-77
2022/02/15 02:34:10;;;;;;;2.40;1.50;;;;;;;5.84;99.19;152860.72;5089443;28;20464;-77
2022/02/15 02:36:47;;;;;;;1.57;1.33;;;;;;;5.77;98.30;152843.94;5081725;28;20444;-77
2022/02/15 02:39:27;;;;;;;1.70;1.60;;;;;;;5.76;99.35;152841.38;5090368;28;20448;-77
2022/02/15 02:42:04;;;;;;;3.57;1.50;;;;;;;5.73;100.00;152833.63;5085854;28;20452;-77
2022/02/15 02:44:40;;;;;;;2.17;1.70;;;;;;;5.70;99.42;152824.59;5086736;28;20436;-77
2022/02/15 02:47:16;;;;;;;1.93;1.23;;;;;;;5.65;100.00;152813.00;5089760;28;20452;-77
2022/02/15 02:49:52;;;;;;;2.10;1.90;;;;;;;5.60;100.00;152800.09;5105249;28;20448;-77
2022/02/15 02:52:28;;;;;;;2.17;1.63;;;;;;;5.63;100.00;152806.56;5090379;28;20539;-77
2022/02/15 02:55:07;;;;;;;2.80;1.63;;;;;;;5.61;99.19;152802.72;5085559;28;20467;-77
2022/02/15 02:57:43;;;;;;;2.67;1.70;;;;;;;5.61;100.00;152802.72;5087550;28;20475;-77
2022/02/15 03:00:20;;;;;;;2.40;1.50;;;;;;;5.65;99.82;152811.69;5090484;28;20448;-77
2022/02/15 03:03:16;;;;;;;2.17;1.63;;;;;;;5.59;99.73;152797.50;5090133;28;20456;-77
2022/02/15 03:05:57;;;;;;;2.17;1.60;;;;;;;5.59;100.00;152796.25;5083889;28;20444;-77
2022/02/15 03:08:33;;;;;;;2.73;1.97;;;;;;;5.60;100.00;152798.81;5090185;28;20451;-77
2022/02/15 03:11:10;;;;;;;1.80;1.37;;;;;;;5.58;100.00;152794.97;5086981;28;20782;-77
2022/02/15 03:13:49;;;;;;;2.43;1.40;;;;;;;5.61;100.00;152801.41;5089167;28;20448;-77
2022/02/15 03:16:34;;;;;;;4.10;1.80;;;;;;;5.59;100.00;152797.50;5085315;28;20445;-77
2022/02/15 03:19:11;;;;;;;3.33;1.73;;;;;;;5.60;100.00;152800.09;5085442;28;20544;-77
2022/02/15 03:21:46;;;;;;;2.97;2.20;;;;;;;5.62;100.00;152805.25;5088563;28;20444;-77
2022/02/15 03:24:22;;;;;;;2.00;1.50;;;;;;;5.61;99.73;152801.41;5087600;28;20444;-77
2022/02/15 03:27:05;;;;;;;1.60;1.50;;;;;;;5.67;100.00;152818.16;5104226;28;20452;-77
2022/02/15 03:29:41;;;;;;;4.30;2.27;;;;;;;5.68;99.89;152820.75;5090176;28;20453;-77
2022/02/15 03:32:17;;;;;;;2.77;1.77;;;;;;;5.70;100.00;152825.88;5089177;28;20456;-77
2022/02/15 03:34:53;;;;;;;2.03;1.70;;;;;;;5.74;100.00;152836.22;5090017;28;21226;-78
2022/02/15 03:37:29;;;;;;;2.00;1.77;;;;;;;5.74;100.00;152836.22;5088577;28;20544;-77
2022/02/15 03:40:09;;;;;;;2.60;2.10;;;;;;;5.75;100.00;152837.47;5088311;28;20444;-77
2022/02/15 03:45:39;;;;;;;2.30;1.70;;;;;;;5.73;99.27;152832.34;5086023;28;21076;-76
2022/02/15 03:48:23;;;;;;;3.43;1.83;;;;;;;5.71;99.45;152828.47;5105898;28;20903;-77
2022/02/15 03:50:59;;;;;;;2.37;1.47;;;;;;;5.74;100.00;152836.22;5087369;28;20445;-76
2022/02/15 03:53:36;;;;;;;3.13;1.77;;;;;;;5.79;99.92;152847.81;5085697;28;20449;-76
2022/02/15 03:56:11;;;;;;;2.27;1.77;;;;;;;5.76;99.66;152840.06;5103049;28;20483;-78
2022/02/15 03:58:48;;;;;;;3.17;1.87;;;;;;;5.77;100.00;152843.94;5090245;28;20465;-76
2022/02/15 04:01:26;;;;;;;2.77;1.80;;;;;;;5.75;100.00;152838.78;5084478;28;20438;-77
2022/02/15 04:04:03;;;;;;;2.30;1.80;;;;;;;5.73;100.00;152833.63;5090075;28;20555;-76
2022/02/15 04:06:39;;;;;;;2.60;2.00;;;;;;;5.71;99.57;152827.19;5086322;28;20448;-76
2022/02/15 04:09:15;;;;;;;2.43;1.90;;;;;;;5.69;98.79;152823.34;5117749;28;20436;-76
2022/02/15 04:11:51;;;;;;;2.30;2.10;;;;;;;5.69;100.00;152823.34;5105670;28;20447;-76
2022/02/15 04:14:33;;;;;;;2.83;2.13;;;;;;;5.72;100.00;152829.78;5087288;28;20526;-76
2022/02/15 04:17:08;;;;;;;2.87;2.00;;;;;;;5.70;100.00;152825.88;5101817;28;20456;-76
2022/02/15 04:19:46;;;;;;;3.90;2.10;;;;;;;5.71;99.37;152827.19;5088441;28;20435;-76
2022/02/15 04:22:21;;;;;;;4.43;2.40;;;;;;;5.71;98.93;152828.47;5091473;28;20443;-76
2022/02/15 04:25:00;;;;;;;2.90;1.97;;;;;;;5.72;100.00;152831.03;5090099;28;20440;-76
2022/02/15 04:27:36;;;;;;;2.23;1.77;;;;;;;5.75;100.00;152838.78;5090125;28;20437;-76
2022/02/15 04:30:14;;;;;;;2.53;2.30;;;;;;;5.72;99.38;152831.03;5091593;28;20452;-76
2022/02/15 04:32:53;;;;;;;3.67;2.40;;;;;;;5.71;99.31;152828.47;5092061;28;20867;-76
2022/02/15 04:35:29;;;;;;;2.83;2.10;;;;;;;5.69;98.87;152823.34;5088224;28;20550;-78
2022/02/15 04:38:05;;;;;;;2.77;2.30;;;;;;;5.70;100.00;152825.88;5093897;28;20452;-78
2022/02/15 04:40:41;;;;;;;2.43;2.23;;;;;;;5.70;100.00;152824.59;5088129;28;20926;-75
2022/02/15 04:43:19;;;;;;;2.53;1.90;;;;;;;5.75;99.71;152837.47;5094659;28;20581;-78
2022/02/15 04:45:56;;;;;;;2.43;1.80;;;;;;;5.71;99.83;152828.47;5087782;28;20440;-77
2022/02/15 04:48:32;;;;;;;3.70;2.60;;;;;;;5.68;99.08;152819.44;5088401;28;20951;-77
2022/02/15 04:51:08;;;;;;;3.40;2.23;;;;;;;5.71;98.45;152827.19;5092577;28;20436;-77
2022/02/15 04:53:45;;;;;;;2.40;2.20;;;;;;;5.72;98.77;152831.03;5092566;28;20514;-77
2022/02/15 04:56:22;;;;;;;2.83;2.10;;;;;;;5.77;99.26;152843.94;5094232;28;20464;-77
2022/02/15 04:58:58;;;;;;;2.50;1.97;;;;;;;5.74;98.65;152836.22;5090339;28;20953;-77
2022/02/15 05:01:35;;;;;;;5.23;2.37;;;;;;;5.80;99.05;152851.66;5090134;28;20460;-77
2022/02/15 05:07:07;;;;;;;3.20;2.20;;;;;;;5.78;99.20;152846.53;5093404;28;20450;-77
2022/02/15 05:09:49;;;;;;;3.00;2.47;;;;;;;5.79;99.29;152847.81;5093509;28;20436;-78
2022/02/15 05:12:27;;;;;;;2.60;2.20;;;;;;;5.80;97.95;152850.44;5108828;28;20448;-77
2022/02/15 05:15:03;;;;;;;2.93;2.57;;;;;;;5.81;97.85;152854.28;5109924;28;20460;-78
2022/02/15 05:17:58;;;;;;;3.60;2.80;;;;;;;5.80;97.32;152851.66;5092189;28;20943;-77
2022/02/15 05:20:34;;;;;;;4.10;2.27;;;;;;;5.85;97.30;152864.63;5091821;28;20452;-77
2022/02/15 05:23:11;;;;;;;3.10;2.50;;;;;;;5.81;97.93;152854.28;5091960;28;20496;-77
2022/02/15 05:25:49;;;;;;;3.53;2.50;;;;;;;5.83;98.34;152859.41;5090902;28;20810;-78
2022/02/15 05:28:57;;;;;;;3.00;2.40;;;;;;;5.78;98.03;152846.53;5104124;28;20448;-77
2022/02/15 05:31:36;;;;;;;3.67;2.90;;;;;;;5.78;97.94;152846.53;5091088;28;20445;-77
2022/02/15 05:34:15;;;;;;;3.90;2.87;;;;;;;5.80;97.62;152850.44;5090682;28;20448;-77
2022/02/15 05:36:54;;;;;;;2.40;2.20;;;;;;;5.80;97.16;152851.66;5087717;28;20794;-78
2022/02/15 05:39:30;;;;;;;3.53;2.30;;;;;;;5.79;97.52;152849.13;5089252;28;20451;-78
2022/02/15 05:42:12;;;;;;;2.97;2.50;;;;;;;5.80;98.01;152851.66;5090508;28;20451;-77
2022/02/15 05:44:48;;;;;;;5.37;2.97;;;;;;;5.81;98.05;152854.28;5091874;28;20440;-78
2022/02/15 05:47:24;;;;;;;4.53;2.50;;;;;;;5.79;98.99;152849.13;5089259;28;20461;-77
2022/02/15 05:52:55;;;;;;;3.60;2.20;;;;;;;5.77;99.74;152843.94;5087629;28;20449;-78
2022/02/15 05:55:30;;;;;;;2.60;2.30;;;;;;;5.79;98.08;152849.13;5098098;28;20478;-78
2022/02/15 05:58:10;;;;;;;2.57;2.17;;;;;;;5.73;98.41;152833.63;5107001;27;20441;-77
2022/02/15 06:00:47;;;;;;;3.23;2.93;;;;;;;5.75;97.93;152837.47;5082461;28;20433;-77
2022/02/15 06:06:18;;;;;;;2.87;2.13;;;;;;;5.78;99.16;152846.53;5109732;27;20435;-77
2022/02/15 06:08:54;;;;;;;2.30;2.10;;;;;;;5.76;98.60;152841.38;5090452;28;20536;-77
2022/02/15 06:11:30;;;;;;;3.37;2.70;;;;;;;5.71;98.19;152828.47;5105632;28;20535;-77
2022/02/15 06:14:06;;;;;;;4.13;2.30;;;;;;;5.69;99.82;152823.34;5108400;27;20445;-77
2022/02/15 06:16:42;;;;;;;2.90;2.40;;;;;;;5.68;99.65;152819.44;5086834;28;20478;-78
2022/02/15 06:19:26;;;;;;;4.27;2.83;;;;;;;5.68;98.88;152820.75;5092956;28;20461;-77
2022/02/15 06:22:04;;;;;;;2.97;2.63;;;;;;;5.69;99.38;152823.34;5107656;28;20453;-77
2022/02/15 06:24:45;;;;;;;3.13;2.10;;;;;;;5.73;98.08;152833.63;5107594;28;20452;-77
2022/02/15 06:27:34;;;;;;;4.37;2.67;;;;;;;5.69;99.70;152822.03;5091519;28;20467;-77
2022/02/15 06:30:15;;;;;;;3.97;2.77;;;;;;;5.69;97.78;152823.34;5104952;28;20441;-77
2022/02/15 06:32:58;;;;;;;3.20;2.03;;;;;;;5.74;98.78;152834.94;5093852;27;20449;-78
2022/02/15 06:35:33;;;;;;;3.10;2.80;;;;;;;5.71;99.68;152828.47;5085714;28;20463;-77
2022/02/15 06:38:15;;;;;;;3.87;2.70;;;;;;;5.70;99.38;152825.88;5091668;28;20447;-77
2022/02/15 06:40:56;;;;;;;4.63;2.97;;;;;;;5.69;98.99;152823.34;5090286;28;20865;-77
2022/02/15 06:43:43;;;;;;;3.53;2.73;;;;;;;5.71;99.99;152827.19;5088328;28;20464;-77
2022/02/15 06:46:19;;;;;;;4.00;2.60;;;;;;;5.71;100.00;152828.47;5090322;28;20432;-77
2022/02/15 06:48:55;;;;;;;3.77;2.90;;;;;;;5.72;100.00;152831.03;5090434;28;20452;-77
2022/02/15 06:51:32;;;;;;;6.87;3.00;;;;;;;5.70;100.00;152825.88;5109620;27;20432;-77
2022/02/15 06:54:13;;;;;;;2.83;2.30;;;;;;;5.69;100.00;152823.34;5089794;28;20436;-77
2022/02/15 06:56:57;;;;;;;3.20;2.90;;;;;;;5.70;100.00;152824.59;5087994;28;20811;-77
2022/02/15 06:59:39;;;;;;;3.07;2.50;;;;;;;5.71;100.00;152827.19;5105744;28;20437;-77
2022/02/15 07:02:18;;;;;;;3.30;2.53;;;;;;;5.72;100.00;152829.78;5105809;28;20437;-77
2022/02/15 07:04:54;;;;;;;2.67;2.47;;;;;;;5.75;100.00;152837.47;5084230;28;20455;-77
2022/02/15 07:07:34;;;;;;;2.70;2.50;;;;;;;5.79;100.00;152849.13;5088164;28;20897;-77
2022/02/15 07:10:12;;;;;;;3.00;2.60;;;;;;;5.78;100.00;152846.53;5087052;28;20443;-77
2022/02/15 07:13:00;;;;;;;2.50;2.30;;;;;;;5.80;100.00;152850.44;5085580;28;20452;-77
2022/02/15 07:15:41;;;;;;;3.33;2.83;;;;;;;5.77;100.00;152842.69;5100406;28;20462;-77
2022/02/15 07:18:23;;;;;;;2.90;2.17;;;;;;;5.78;100.00;152846.53;5102215;28;20769;-77
2022/02/15 07:21:18;;;;;;;2.93;2.53;;;;;;;5.77;100.00;152843.94;5102438;27;20448;-77
2022/02/15 07:24:13;;;;;;;3.00;2.30;;;;;;;5.76;100.00;152841.38;5105055;28;20536;-77
2022/02/15 07:27:09;;;;;;;4.80;3.07;;;;;;;5.77;100.00;152843.94;5106985;28;20456;-77
2022/02/15 07:29:48;;;;;;;3.13;2.50;;;;;;;5.82;100.00;152856.88;5087944;28;20449;-77
2022/02/15 07:32:30;;;;;;;3.00;2.27;;;;;;;5.77;100.00;152843.94;5085414;28;20457;-77
2022/02/15 07:35:08;;;;;;;3.90;2.40;;;;;;;5.79;100.00;152847.81;5087230;28;20538;-77
2022/02/15 07:37:47;;;;;;;6.90;2.87;;;;;;;5.79;100.00;152849.13;5107651;28;20440;-77
2022/02/15 07:40:23;;;;;;;4.33;2.90;;;;;;;5.78;100.00;152846.53;5117080;28;20481;-77
2022/02/15 07:43:00;;;;;;;4.40;2.87;;;;;;;5.77;100.00;152843.94;5103460;28;20515;-77
2022/02/15 07:45:51;;;;;;;2.93;2.23;;;;;;;5.81;100.00;152852.97;5119346;28;20456;-77
2022/02/15 07:48:27;;;;;;;2.90;2.67;;;;;;;5.80;100.00;152850.44;5086622;28;20456;-77
2022/02/15 07:51:03;;;;;;;2.93;2.30;;;;;;;5.82;100.00;152856.88;5105358;28;20440;-77
2022/02/15 07:53:38;;;;;;;2.70;2.33;;;;;;;5.86;100.00;152867.22;5100547;28;20834;-77
2022/02/15 07:56:15;;;;;;;3.33;2.50;;;;;;;5.88;100.00;152871.06;5103020;28;20460;-77
2022/02/15 07:58:52;;;;;;;3.07;2.50;;;;;;;5.86;100.00;152867.22;5099922;28;20448;-77
2022/02/15 08:01:27;;;;;;;2.90;2.40;;;;;;;5.87;100.00;152869.81;5103758;28;20440;-77
2022/02/15 08:04:03;;;;;;;4.90;2.40;;;;;;;5.84;100.00;152862.00;5091331;28;20452;-77
2022/02/15 08:06:40;;;;;;;4.10;2.27;;;;;;;5.86;100.00;152865.91;5090943;28;20440;-77
2022/02/15 08:09:16;;;;;;;3.40;2.30;;;;;;;5.87;100.00;152869.81;5110009;28;20436;-77
2022/02/15 08:11:55;;;;;;;3.27;2.80;;;;;;;5.92;100.00;152882.69;5107928;28;20448;-78
2022/02/15 08:14:32;;;;;;;4.17;2.43;;;;;;;5.98;100.00;152896.91;5107120;28;20756;-78
2022/02/15 08:17:07;;;;;;;3.63;2.57;;;;;;;6.00;100.00;152903.34;5108500;28;20491;-76
2022/02/15 08:19:43;;;;;;;2.30;2.10;;;;;;;5.99;100.00;152900.75;5093587;28;20938;-77
2022/02/15 08:22:20;;;;;;;3.37;2.10;;;;;;;6.03;100.00;152911.09;5110401;28;20888;-77
2022/02/15 08:24:56;;;;;;;4.20;2.40;;;;;;;6.05;100.00;152916.25;5121737;27;20448;-77
2022/02/15 08:27:32;;;;;;;5.40;2.87;;;;;;;6.03;100.00;152909.78;5105099;28;20452;-77
2022/02/15 08:30:10;;;;;;;3.10;2.40;;;;;;;6.07;100.00;152921.38;5104266;28;20657;-77
2022/02/15 08:32:45;;;;;;;4.60;2.50;;;;;;;6.10;100.00;152927.84;5102336;28;20443;-77
2022/02/15 08:35:21;;;;;;;2.80;2.30;;;;;;;6.13;100.00;152935.59;5084849;28;20448;-77
2022/02/15 08:37:57;;;;;;;2.43;2.23;;;;;;;6.21;100.00;152954.94;5092336;28;20810;-77
2022/02/15 08:40:33;;;;;;;3.17;2.30;;;;;;;6.31;100.00;152980.72;5103787;28;20443;-77
2022/02/15 08:43:08;;;;;;;2.03;1.60;;;;;;;6.38;100.00;152998.81;5107007;28;20911;-77
2022/02/15 08:45:45;;;;;;;2.73;2.17;;;;;;;6.44;100.00;153015.56;5107152;27;20463;-77
2022/02/15 08:48:21;;;;;;;3.70;2.30;;;;;;;6.53;100.00;153037.50;5090289;28;20448;-77
2022/02/15 08:50:57;;;;;;;4.07;2.00;;;;;;;6.52;100.00;153034.91;5092075;28;20440;-77
2022/02/15 08:53:33;;;;;;;3.20;2.27;;;;;;;6.55;100.00;153043.97;5104312;27;20445;-77
2022/02/15 08:56:08;;;;;;;2.80;2.00;;;;;;;6.57;100.00;153047.81;5106302;27;21093;-77
2022/02/15 08:58:44;;;;;;;3.00;1.80;;;;;;;6.57;100.00;153047.81;5106904;28;20453;-77
2022/02/15 09:01:21;;;;;;;3.20;1.73;;;;;;;6.62;100.00;153060.72;5103189;28;20530;-77
2022/02/15 09:03:57;;;;;;;1.60;1.40;;;;;;;6.61;100.00;153058.16;5104182;28;20491;-77
2022/02/15 09:06:34;;;;;;;3.13;1.50;;;;;;;6.61;100.00;153058.16;5107972;28;20464;-77
2022/02/15 09:09:12;;;;;;;2.80;1.97;;;;;;;6.61;100.00;153058.16;5107838;28;20539;-77
2022/02/15 09:11:48;;;;;;;1.90;1.60;;;;;;;6.67;100.00;153074.91;5105471;28;20448;-77
2022/02/15 09:14:23;;;;;;;2.23;1.80;;;;;;;6.64;100.00;153065.91;5102519;28;20456;-77
2022/02/15 09:17:01;;;;;;;2.17;1.60;;;;;;;6.68;100.00;153076.22;5102672;28;21005;-77
2022/02/15 09:19:37;;;;;;;2.70;1.87;;;;;;;6.72;100.00;153086.56;5088865;28;20789;-77
2022/02/15 09:22:12;;;;;;;3.30;1.90;;;;;;;6.75;99.46;153095.56;5102071;28;20456;-77
2022/02/15 09:24:51;;;;;;;2.13;1.70;;;;;;;6.78;100.00;153102.03;5102391;28;20453;-77
2022/02/15 09:27:26;;;;;;;2.00;1.60;;;;;;;6.83;100.00;153114.94;5120151;27;20441;-77
2022/02/15 09:30:02;;;;;;;2.10;1.37;;;;;;;6.80;100.00;153107.22;5104602;28;20432;-77
2022/02/15 09:32:39;;;;;;;1.73;1.43;;;;;;;6.83;98.30;153114.94;5105954;28;20542;-77
2022/02/15 09:35:14;;;;;;;1.70;1.50;;;;;;;6.88;98.66;153127.88;5090588;28;20882;-77
2022/02/15 09:37:50;;;;;;;2.10;1.33;;;;;;;6.96;98.07;153147.25;5106598;28;20479;-77
2022/02/15 09:40:26;;;;;;;3.70;1.00;;;;;;;7.02;97.97;153162.69;5102148;28;20844;-77
2022/02/15 09:43:01;;;;;;;2.37;1.90;;;;;;;7.12;95.35;153189.81;5091401;28;20468;-77
2022/02/15 09:45:38;;;;;;;2.43;1.77;;;;;;;7.15;96.74;153196.25;5105194;28;20922;-78
2022/02/15 09:48:18;;;;;;;1.80;1.60;;;;;;;7.12;94.61;153189.81;5106539;28;20444;-77
2022/02/15 09:50:54;;;;;;;2.37;1.87;;;;;;;7.12;94.67;153189.81;5106531;28;20432;-77
2022/02/15 09:53:29;;;;;;;2.53;2.10;;;;;;;7.09;93.53;153180.81;5105131;28;20924;-77
2022/02/15 09:56:06;;;;;;;5.30;1.80;;;;;;;7.04;95.50;153169.16;5095227;28;20570;-77
2022/02/15 09:58:42;;;;;;;2.47;2.03;;;;;;;7.00;96.51;153157.53;5104715;28;20965;-77
2022/02/15 10:01:17;;;;;;;2.20;1.67;;;;;;;6.94;95.05;153143.34;5081965;28;20437;-77
2022/02/15 10:03:59;;;;;;;2.60;1.83;;;;;;;6.96;94.91;153148.53;5090942;28;20805;-77
2022/02/15 10:06:35;;;;;;;3.43;2.10;;;;;;;7.02;95.15;153162.69;5108133;27;20969;-77
2022/02/15 10:09:11;;;;;;;2.10;1.90;;;;;;;7.08;94.34;153179.50;5083843;28;20464;-77
2022/02/15 10:11:47;;;;;;;1.30;1.03;;;;;;;7.21;93.50;153211.78;5103259;28;20807;-79
2022/02/15 10:14:22;;;;;;;1.97;1.57;;;;;;;7.23;91.49;153218.22;5089065;28;20449;-79
2022/02/15 10:16:58;;;;;;;2.30;1.80;;;;;;;7.29;92.26;153232.44;5086780;28;20559;-79
2022/02/15 10:19:35;;;;;;;2.10;1.63;;;;;;;7.23;92.37;153218.22;5081163;28;20531;-79
2022/02/15 10:22:11;;;;;;;2.73;1.90;;;;;;;7.30;91.80;153236.34;5088760;28;20452;-79
2022/02/15 10:24:51;;;;;;;2.27;2.00;;;;;;;7.33;91.35;153244.03;5103076;28;20458;-79
2022/02/15 10:27:30;;;;;;;4.30;1.50;;;;;;;7.36;89.80;153250.50;5103593;28;20532;-79
2022/02/15 10:30:06;;;;;;;3.53;2.10;;;;;;;7.45;90.38;153273.75;5105487;28;20435;-79
2022/02/15 10:32:42;;;;;;;2.40;1.80;;;;;;;7.47;89.22;153277.63;5106635;28;20444;-79
2022/02/15 10:35:25;;;;;;;5.43;1.90;;;;;;;7.47;87.44;153277.63;5088360;28;20521;-79
2022/02/15 10:38:01;;;;;;;3.07;1.90;;;;;;;7.52;85.64;153291.81;5089260;28;20473;-79
2022/02/15 10:40:37;;;;;;;2.20;1.80;;;;;;;7.52;87.18;153291.81;5103888;27;20451;-79
2022/02/15 10:43:13;;;;;;;1.90;1.43;;;;;;;7.55;86.61;153298.28;5105723;28;20475;-79
2022/02/15 10:45:48;;;;;;;1.90;1.67;;;;;;;7.54;83.95;153295.72;5102600;28;20456;-79
2022/02/15 10:48:33;;;;;;;1.97;1.30;;;;;;;7.51;84.07;153287.97;5104641;27;20444;-79
2022/02/15 10:51:10;;;;;;;2.40;1.50;;;;;;;7.47;79.73;153277.63;5107001;28;20432;-79
2022/02/15 10:53:46;;;;;;;2.30;1.43;;;;;;;7.38;80.32;153254.41;5106862;28;20444;-79
2022/02/15 10:56:21;;;;;;;1.57;1.40;;;;;;;7.46;84.69;153275.06;5099143;28;20436;-79
2022/02/15 10:58:57;;;;;;;2.90;1.80;;;;;;;7.41;80.85;153262.16;5108323;27;20800;-79
2022/02/15 11:01:33;;;;;;;1.93;1.40;;;;;;;7.39;84.58;153257.00;5105660;28;20466;-79
2022/02/15 11:04:09;;;;;;;3.67;1.87;;;;;;;7.42;85.44;153264.69;5102354;28;20529;-79
2022/02/15 11:06:46;;;;;;;1.53;1.40;;;;;;;7.43;80.29;153267.31;5100902;28;20428;-79
2022/02/15 11:09:24;;;;;;;1.77;1.30;;;;;;;7.39;82.23;153257.00;5107533;28;20444;-79
2022/02/15 11:12:07;;;;;;;1.90;1.23;;;;;;;7.44;82.95;153269.91;5104013;28;20769;-79
2022/02/15 11:14:43;;;;;;;1.60;1.30;;;;;;;7.41;85.05;153262.16;5104148;28;20785;-79
2022/02/15 11:17:18;;;;;;;2.73;1.23;;;;;;;7.40;81.57;153259.53;5103464;28;20459;-79
2022/02/15 11:19:59;;;;;;;1.30;1.03;;;;;;;7.49;80.90;153282.81;5101890;28;20926;-79
2022/02/15 11:22:44;;;;;;;1.23;1.00;;;;;;;7.44;78.93;153271.16;5099836;28;20947;-79
2022/02/15 11:25:29;;;;;;;1.83;1.30;;;;;;;7.43;78.52;153267.31;5102138;28;20503;-79
2022/02/15 11:28:11;;;;;;;1.37;1.20;;;;;;;7.42;82.67;153264.69;5104798;28;21444;-79
2022/02/15 11:30:48;;;;;;;3.10;1.20;;;;;;;7.39;80.81;153258.25;5104565;28;20448;-79
2022/02/15 11:33:24;;;;;;;2.10;1.30;;;;;;;7.41;78.02;153263.44;5105557;28;20496;-79
2022/02/15 11:36:05;;;;;;;1.37;1.20;;;;;;;7.47;78.26;153277.63;5103042;28;20454;-79
2022/02/15 11:38:51;;;;;;;1.80;1.50;;;;;;;7.50;82.31;153285.38;5122498;27;20479;-79
2022/02/15 11:41:29;;;;;;;1.93;1.27;;;;;;;7.46;78.48;153275.06;5105748;28;20458;-79
2022/02/15 11:44:05;;;;;;;4.43;1.43;;;;;;;7.42;76.21;153264.69;5105214;28;20816;-79
2022/02/15 11:46:43;;;;;;;4.17;2.03;;;;;;;7.46;79.28;153276.34;5096140;28;20452;-79
2022/02/15 11:49:19;;;;;;;2.80;0.90;;;;;;;7.50;79.00;153285.38;5096329;28;20464;-79
2022/02/15 11:51:56;;;;;;;2.43;1.20;;;;;;;7.50;81.93;153285.38;5110344;28;20460;-79
2022/02/15 11:54:34;;;;;;;1.67;1.17;;;;;;;7.44;76.13;153269.91;5107708;28;20436;-79
2022/02/15 11:57:11;;;;;;;1.50;1.10;;;;;;;7.44;82.45;153269.91;5106388;28;20894;-79
2022/02/15 11:59:53;;;;;;;2.10;1.30;;;;;;;7.48;78.00;153280.22;5103370;28;20441;-79
2022/02/15 12:02:29;;;;;;;1.73;1.37;;;;;;;7.48;75.04;153280.22;5104059;28;20448;-79
2022/02/15 12:05:06;;;;;;;1.40;1.00;;;;;;;7.54;77.88;153295.72;5103519;28;20444;-78
2022/02/15 12:07:43;;;;;;;1.83;1.33;;;;;;;7.61;80.90;153313.78;5106182;28;20435;-79
2022/02/15 12:10:20;;;;;;;1.70;1.43;;;;;;;7.64;78.64;153321.56;5105947;28;20436;-79
2022/02/15 12:12:55;;;;;;;2.37;1.03;;;;;;;7.67;73.55;153329.31;5092527;28;20534;-78
2022/02/15 12:15:35;;;;;;;2.40;1.40;;;;;;;7.72;76.76;153342.22;5108585;28;20858;-78
2022/02/15 12:18:11;;;;;;;1.20;0.90;;;;;;;7.74;72.39;153348.69;5105584;28;20891;-78
2022/02/15 12:20:52;;;;;;;1.20;1.10;;;;;;;7.78;74.83;153357.72;5106225;28;20876;-78
2022/02/15 12:23:28;;;;;;;2.80;0.90;;;;;;;7.87;72.87;153382.25;5106716;28;20555;-78
2022/02/15 12:26:26;;;;;;;2.13;1.20;;;;;;;8.01;73.66;153415.84;5093925;28;20774;-78
2022/02/15 12:29:02;;;;;;;1.63;1.30;;;;;;;8.05;76.60;153426.22;5106267;28;20437;-79
2022/02/15 12:31:37;;;;;;;2.30;1.30;;;;;;;8.11;70.89;153443.00;5092721;28;20838;-79
2022/02/15 12:34:15;;;;;;;1.23;0.90;;;;;;;8.25;70.97;153479.19;5091274;28;20799;-79
2022/02/15 12:36:50;;;;;;;3.77;1.20;;;;;;;8.26;69.58;153480.50;5109837;28;20472;-79